createdAt,value
2023-02-08T00:01:46.139Z,67.19
2023-02-08T00:04:15.499Z,67.10
2023-02-08T00:06:45.788Z,67.29
2023-02-08T00:09:15.377Z,67.44
2023-02-08T00:11:44.667Z,67.62
2023-02-08T00:14:14.044Z,67.77
2023-02-08T00:16:43.273Z,67.81
2023-02-08T00:19:14.250Z,67.96
2023-02-08T00:21:43.663Z,68.04
2023-02-08T00:24:13.746Z,68.21
2023-02-08T00:26:43.325Z,68.38
2023-02-08T00:29:12.591Z,68.35
2023-02-08T00:31:41.647Z,68.25
2023-02-08T00:34:11.092Z,68.10
2023-02-08T00:36:42.948Z,68.06
2023-02-08T00:39:13.018Z,68.30
2023-02-08T00:41:44.386Z,68.50
2023-02-08T00:44:14.619Z,68.44
2023-02-08T00:46:44.336Z,68.68
2023-02-08T00:49:13.662Z,68.58
2023-02-08T00:51:43.701Z,68.56
2023-02-08T00:54:15.511Z,68.63
2023-02-08T00:56:44.489Z,68.67
2023-02-08T00:59:13.811Z,68.34
2023-02-08T01:01:44.684Z,68.32
2023-02-08T01:04:13.765Z,68.36
2023-02-08T01:06:44.212Z,68.49
2023-02-08T01:09:14.147Z,68.53
2023-02-08T01:11:45.219Z,68.55
2023-02-08T01:14:14.560Z,68.65
2023-02-08T01:16:43.936Z,68.55
2023-02-08T01:19:12.887Z,68.55
2023-02-08T01:21:42.299Z,68.37
2023-02-08T01:24:11.383Z,68.25
2023-02-08T01:26:40.823Z,68.30
2023-02-08T01:29:13.596Z,68.15
2023-02-08T01:31:43.560Z,68.27
2023-02-08T01:34:12.992Z,68.37
2023-02-08T01:36:43.499Z,68.44
2023-02-08T01:39:12.431Z,68.35
2023-02-08T01:41:44.081Z,68.45
2023-02-08T01:44:18.865Z,68.64
2023-02-08T01:46:51.198Z,68.72
2023-02-08T01:49:26.792Z,68.80
2023-02-08T01:52:03.757Z,68.90
2023-02-08T01:54:38.202Z,68.95
2023-02-08T01:57:07.429Z,69.01
2023-02-08T01:59:41.431Z,69.16
2023-02-08T02:02:13.042Z,69.06
2023-02-08T02:04:43.052Z,69.31
2023-02-08T02:07:11.794Z,69.42
2023-02-08T02:09:52.262Z,69.51
2023-02-08T02:12:22.293Z,69.46
2023-02-08T02:14:52.711Z,69.35
2023-02-08T02:17:22.176Z,69.34
2023-02-08T02:20:20.346Z,69.44
2023-02-08T02:23:28.043Z,69.28
2023-02-08T02:26:39.561Z,69.30
2023-02-08T02:29:56.609Z,69.48
2023-02-08T02:32:42.758Z,69.65
2023-02-08T02:35:34.977Z,69.68
2023-02-08T02:38:12.808Z,69.82
2023-02-08T02:41:23.138Z,69.88
2023-02-08T02:43:55.934Z,69.92
2023-02-08T02:46:28.830Z,69.98
2023-02-08T02:49:20.878Z,69.94
2023-02-08T02:52:12.192Z,69.98
2023-02-08T02:54:51.685Z,70.11
2023-02-08T02:57:26.814Z,69.93
2023-02-08T02:59:57.794Z,69.99
2023-02-08T03:02:27.614Z,70.26
2023-02-08T03:04:57.855Z,70.34
2023-02-08T03:07:35.451Z,70.44
2023-02-08T03:10:13.746Z,70.39
2023-02-08T03:13:13.436Z,70.39
2023-02-08T03:16:18.590Z,70.63
2023-02-08T03:19:10.657Z,70.73
2023-02-08T03:21:50.990Z,70.80
2023-02-08T03:24:43.614Z,70.92
2023-02-08T03:27:37.570Z,70.95
2023-02-08T03:30:14.895Z,70.76
2023-02-08T03:33:19.100Z,70.78
2023-02-08T03:35:57.134Z,70.94
2023-02-08T03:38:34.300Z,70.96
2023-02-08T03:41:04.473Z,71.02
2023-02-08T03:43:55.217Z,71.05
2023-02-08T03:46:34.899Z,70.85
2023-02-08T03:49:09.435Z,70.88
2023-02-08T03:51:41.582Z,70.95
2023-02-08T03:54:21.052Z,70.83
2023-02-08T03:57:09.721Z,70.96
2023-02-08T03:59:42.420Z,71.14
2023-02-08T04:02:14.465Z,71.12
2023-02-08T04:04:46.622Z,71.12
2023-02-08T04:07:17.176Z,71.35
2023-02-08T04:09:45.983Z,71.50
2023-02-08T04:12:14.913Z,71.43
2023-02-08T04:14:43.886Z,71.56
2023-02-08T04:17:14.673Z,71.64
2023-02-08T04:19:44.238Z,71.63
2023-02-08T04:22:13.052Z,71.54
2023-02-08T04:24:43.115Z,71.44
2023-02-08T04:27:12.780Z,71.47
2023-02-08T04:29:42.157Z,71.42
2023-02-08T04:32:11.642Z,71.42
2023-02-08T04:34:41.119Z,71.35
2023-02-08T04:37:11.667Z,71.19
2023-02-08T04:39:40.632Z,71.17
2023-02-08T04:42:09.213Z,71.17
2023-02-08T04:44:39.017Z,71.30
2023-02-08T04:47:07.923Z,71.25
2023-02-08T04:49:36.973Z,71.12
2023-02-08T04:52:06.037Z,71.10
2023-02-08T04:54:35.665Z,71.32
2023-02-08T04:57:04.702Z,71.36
2023-02-08T04:59:34.402Z,71.34
2023-02-08T05:02:04.209Z,71.29
2023-02-08T05:04:34.021Z,71.17
2023-02-08T05:07:05.833Z,71.19
2023-02-08T05:09:34.799Z,71.12
2023-02-08T05:12:03.650Z,71.10
2023-02-08T05:14:33.224Z,71.19
2023-02-08T05:17:02.207Z,71.22
2023-02-08T05:19:31.473Z,71.17
2023-02-08T05:22:01.289Z,71.11
2023-02-08T05:24:34.333Z,71.18
2023-02-08T05:27:03.709Z,71.27
2023-02-08T05:29:32.611Z,71.39
2023-02-08T05:32:01.615Z,71.41
2023-02-08T05:34:31.343Z,71.36
2023-02-08T05:37:00.898Z,71.57
2023-02-08T05:39:30.352Z,71.67
2023-02-08T05:41:59.062Z,71.70
2023-02-08T05:44:28.099Z,71.91
2023-02-08T05:46:56.870Z,71.96
2023-02-08T05:49:26.907Z,71.93
2023-02-08T05:51:55.707Z,71.95
2023-02-08T05:54:24.858Z,72.06
2023-02-08T05:56:53.819Z,72.06
2023-02-08T05:59:22.667Z,72.17
2023-02-08T06:01:51.583Z,72.18
2023-02-08T06:04:20.374Z,72.17
2023-02-08T06:06:50.927Z,72.11
2023-02-08T06:09:21.545Z,72.25
2023-02-08T06:11:51.621Z,72.33
2023-02-08T06:14:21.335Z,72.30
2023-02-08T06:16:50.399Z,72.33
2023-02-08T06:19:20.568Z,72.41
2023-02-08T06:21:49.347Z,72.56
2023-02-08T06:24:18.647Z,72.60
2023-02-08T06:26:49.062Z,72.63
2023-02-08T06:29:19.836Z,72.41
2023-02-08T06:31:49.014Z,72.26
2023-02-08T06:34:17.631Z,72.13
2023-02-08T06:36:46.275Z,72.14
2023-02-08T06:39:15.229Z,72.27
2023-02-08T06:41:44.216Z,72.31
2023-02-08T06:44:13.156Z,72.38
2023-02-08T06:46:43.737Z,72.40
2023-02-08T06:49:12.422Z,72.36
2023-02-08T06:51:42.537Z,72.28
2023-02-08T06:54:11.288Z,72.12
2023-02-08T06:56:42.535Z,72.24
2023-02-08T06:59:13.059Z,72.27
2023-02-08T07:01:42.476Z,72.35
2023-02-08T10:07:51.586Z,63.75
2023-02-08T10:10:47.706Z,63.70
2023-02-08T10:13:41.407Z,63.70
2023-02-08T10:16:32.033Z,63.85
2023-02-08T10:19:38.080Z,63.87
2023-02-08T10:22:32.283Z,63.71
2023-02-08T10:25:32.316Z,63.23
2023-02-08T10:28:34.370Z,63.18
2023-02-08T10:31:11.906Z,63.01
2023-02-08T10:34:02.421Z,63.88
2023-02-08T10:36:38.943Z,62.31
2023-02-08T10:39:27.508Z,61.76
2023-02-08T10:42:03.409Z,62.08
2023-02-08T10:44:58.713Z,62.12
2023-02-08T10:47:42.742Z,61.89
2023-02-08T10:50:38.048Z,61.83
2023-02-08T10:53:09.308Z,61.84
2023-02-08T10:55:47.081Z,61.54
2023-02-08T10:58:20.111Z,61.63
2023-02-08T11:00:55.057Z,61.00
2023-02-08T11:03:31.399Z,61.00
2023-02-08T11:05:58.637Z,61.25
2023-02-08T11:08:30.264Z,61.41
2023-02-08T11:11:11.972Z,61.55
2023-02-08T11:13:50.923Z,61.38
2023-02-08T11:16:31.908Z,61.17
2023-02-08T11:19:07.410Z,60.96
2023-02-08T11:21:40.586Z,61.14
2023-02-08T11:24:30.256Z,61.09
2023-02-08T11:27:02.682Z,61.03
2023-02-08T11:29:32.538Z,61.16
2023-02-08T11:32:06.471Z,61.15
2023-02-08T11:34:43.752Z,61.18
2023-02-08T11:37:31.861Z,61.04
2023-02-08T11:40:07.060Z,60.88
2023-02-08T11:42:40.697Z,61.10
2023-02-08T11:45:20.915Z,61.17
2023-02-08T11:47:49.667Z,61.03
2023-02-08T11:50:27.107Z,61.13
2023-02-08T11:52:59.405Z,60.84
2023-02-08T11:55:30.946Z,60.90
2023-02-08T11:58:25.717Z,60.65
2023-02-08T12:01:06.800Z,60.84
2023-02-08T12:03:40.416Z,60.53
2023-02-08T12:06:38.544Z,60.73
2023-02-08T12:09:23.142Z,60.69
2023-02-08T12:12:03.602Z,60.55
2023-02-08T12:15:09.181Z,60.76
2023-02-08T12:18:14.671Z,60.92
2023-02-08T12:20:47.651Z,61.00
2023-02-08T12:23:32.432Z,60.81
2023-02-08T12:26:25.657Z,60.55
2023-02-08T12:29:18.358Z,60.57
2023-02-08T12:32:14.078Z,61.70
2023-02-08T12:35:03.997Z,60.79
2023-02-08T12:38:11.199Z,60.37
2023-02-08T12:40:55.173Z,60.21
2023-02-08T12:43:32.897Z,60.26
2023-02-08T12:46:29.593Z,60.34
2023-02-08T12:49:45.016Z,60.53
2023-02-08T12:52:29.264Z,60.40
2023-02-08T12:55:03.894Z,60.27
2023-02-08T12:57:33.043Z,60.14
2023-02-08T13:00:10.802Z,59.55
2023-02-08T13:02:49.115Z,61.39
2023-02-08T13:05:20.372Z,60.73
2023-02-08T13:07:51.462Z,60.37
2023-02-08T13:10:31.683Z,59.83
2023-02-08T13:13:23.280Z,59.70
2023-02-08T13:16:01.164Z,59.76
2023-02-08T13:18:35.475Z,59.36
2023-02-08T13:21:08.361Z,59.36
2023-02-08T13:23:52.366Z,59.30
2023-02-08T13:26:26.399Z,59.55
2023-02-08T13:28:58.380Z,59.63
2023-02-08T13:31:35.750Z,59.50
2023-02-08T13:34:29.529Z,59.16
2023-02-08T13:37:01.809Z,59.22
2023-02-08T13:39:40.099Z,59.36
2023-02-08T13:42:22.387Z,59.46
2023-02-08T13:44:55.214Z,59.46
2023-02-08T13:47:41.261Z,59.48
2023-02-08T13:50:38.184Z,59.15
2023-02-08T13:53:07.515Z,59.30
2023-02-08T13:55:56.321Z,59.10
2023-02-08T13:58:49.996Z,59.14
2023-02-08T14:01:24.448Z,59.37
2023-02-08T14:04:21.962Z,59.53
2023-02-08T14:07:29.021Z,59.58
2023-02-08T14:10:30.444Z,59.86
2023-02-08T14:13:24.883Z,59.71
2023-02-08T14:16:38.446Z,59.51
2023-02-08T14:19:24.190Z,59.59
2023-02-08T14:22:16.420Z,59.75
2023-02-08T14:24:52.337Z,59.56
2023-02-08T14:27:30.021Z,59.51
2023-02-08T14:30:05.016Z,59.90
2023-02-08T14:32:38.231Z,59.72
2023-02-08T14:35:25.477Z,59.63
2023-02-08T14:38:23.007Z,59.35
2023-02-08T14:40:54.851Z,59.45
2023-02-08T14:43:40.070Z,59.30
2023-02-08T14:46:42.981Z,59.23
2023-02-08T14:49:18.152Z,59.27
2023-02-08T14:52:00.721Z,59.28
2023-02-08T14:54:43.407Z,59.12
2023-02-08T14:57:34.730Z,59.03
2023-02-08T15:00:12.656Z,59.09
2023-02-08T15:02:43.555Z,59.05
2023-02-08T15:05:25.317Z,59.04
2023-02-08T15:08:00.573Z,59.20
2023-02-08T15:10:30.080Z,59.31
2023-02-08T15:13:04.002Z,59.24
2023-02-08T15:15:41.537Z,59.14
2023-02-08T15:18:19.790Z,59.20
2023-02-08T15:21:06.410Z,59.05
2023-02-08T15:23:36.424Z,59.33
2023-02-08T15:26:08.911Z,59.63
2023-02-08T15:28:37.895Z,59.77
2023-02-08T15:31:09.946Z,59.86
2023-02-08T15:33:41.456Z,59.91
2023-02-08T15:36:33.002Z,59.94
2023-02-08T15:39:06.542Z,60.05
2023-02-08T15:41:35.501Z,60.22
2023-02-08T15:44:19.148Z,60.32
2023-02-08T15:46:48.487Z,60.61
2023-02-08T15:49:28.985Z,60.79
2023-02-08T15:51:57.652Z,61.30
2023-02-08T15:54:26.417Z,61.43
2023-02-08T15:57:08.524Z,61.30
2023-02-08T15:59:39.589Z,61.45
2023-02-08T16:02:32.321Z,62.29
2023-02-08T16:05:02.514Z,62.32
